sensor_id;sensor_type;location;lat;lon;timestamp;P1;durP1;ratioP1;P2;durP2;ratioP2
21943;SDS011;11136;48.778;9.126;2023-02-28T00:01:27;4.22;;;1.85;;
21943;SDS011;11136;48.778;9.126;2023-02-28T00:03:53;3.30;;;1.90;;
21943;SDS011;11136;48.778;9.126;2023-02-28T00:06:19;3.92;;;2.40;;
21943;SDS011;11136;48.778;9.126;2023-02-28T00:08:45;3.60;;;1.85;;
21943;SDS011;11136;48.778;9.126;2023-02-28T00:11:12;2.78;;;1.95;;
21943;SDS011;11136;48.778;9.126;2023-02-28T00:13:40;2.75;;;1.70;;
21943;SDS011;11136;48.778;9.126;2023-02-28T00:16:08;2.92;;;1.70;;
21943;SDS011;11136;48.778;9.126;2023-02-28T00:18:36;2.40;;;1.70;;
21943;SDS011;11136;48.778;9.126;2023-02-28T00:21:02;4.28;;;2.28;;
21943;SDS011;11136;48.778;9.126;2023-02-28T00:23:28;3.78;;;1.90;;
21943;SDS011;11136;48.778;9.126;2023-02-28T00:25:54;9.85;;;3.13;;
21943;SDS011;11136;48.778;9.126;2023-02-28T00:28:20;2.13;;;1.70;;
21943;SDS011;11136;48.778;9.126;2023-02-28T00:30:46;5.75;;;2.33;;
21943;SDS011;11136;48.778;9.126;2023-02-28T00:33:12;2.90;;;2.05;;
21943;SDS011;11136;48.778;9.126;2023-02-28T00:35:37;4.03;;;2.05;;
21943;SDS011;11136;48.778;9.126;2023-02-28T00:38:03;4.72;;;2.40;;
21943;SDS011;11136;48.778;9.126;2023-02-28T00:40:28;3.83;;;1.98;;
21943;SDS011;11136;48.778;9.126;2023-02-28T00:42:54;3.85;;;2.15;;
21943;SDS011;11136;48.778;9.126;2023-02-28T00:45:20;2.85;;;1.98;;
21943;SDS011;11136;48.778;9.126;2023-02-28T00:47:46;5.45;;;2.17;;
21943;SDS011;11136;48.778;9.126;2023-02-28T00:50:14;2.42;;;2.17;;
21943;SDS011;11136;48.778;9.126;2023-02-28T00:52:41;4.32;;;2.30;;
21943;SDS011;11136;48.778;9.126;2023-02-28T00:55:07;3.45;;;2.13;;
21943;SDS011;11136;48.778;9.126;2023-02-28T00:57:34;3.67;;;2.20;;
21943;SDS011;11136;48.778;9.126;2023-02-28T00:59:59;6.47;;;2.63;;
21943;SDS011;11136;48.778;9.126;2023-02-28T01:02:25;1.90;;;1.60;;
21943;SDS011;11136;48.778;9.126;2023-02-28T01:04:51;3.00;;;2.15;;
21943;SDS011;11136;48.778;9.126;2023-02-28T01:07:16;3.70;;;2.15;;
21943;SDS011;11136;48.778;9.126;2023-02-28T01:09:42;3.97;;;2.30;;
21943;SDS011;11136;48.778;9.126;2023-02-28T01:12:08;3.13;;;2.00;;
21943;SDS011;11136;48.778;9.126;2023-02-28T01:14:34;4.70;;;2.45;;
21943;SDS011;11136;48.778;9.126;2023-02-28T01:17:00;3.80;;;2.40;;
21943;SDS011;11136;48.778;9.126;2023-02-28T01:19:26;4.07;;;2.20;;
21943;SDS011;11136;48.778;9.126;2023-02-28T01:21:51;3.03;;;2.17;;
21943;SDS011;11136;48.778;9.126;2023-02-28T01:24:17;4.05;;;2.53;;
21943;SDS011;11136;48.778;9.126;2023-02-28T01:26:43;4.93;;;2.40;;
21943;SDS011;11136;48.778;9.126;2023-02-28T01:29:08;5.03;;;2.30;;
21943;SDS011;11136;48.778;9.126;2023-02-28T01:31:34;3.70;;;2.30;;
21943;SDS011;11136;48.778;9.126;2023-02-28T01:33:59;3.72;;;2.28;;
21943;SDS011;11136;48.778;9.126;2023-02-28T01:36:25;4.85;;;2.83;;
21943;SDS011;11136;48.778;9.126;2023-02-28T01:38:51;4.22;;;2.70;;
21943;SDS011;11136;48.778;9.126;2023-02-28T01:41:21;3.95;;;2.45;;
21943;SDS011;11136;48.778;9.126;2023-02-28T01:43:53;3.65;;;1.95;;
21943;SDS011;11136;48.778;9.126;2023-02-28T01:46:24;3.38;;;2.10;;
21943;SDS011;11136;48.778;9.126;2023-02-28T01:48:54;5.25;;;3.00;;
21943;SDS011;11136;48.778;9.126;2023-02-28T01:51:43;3.63;;;2.13;;
21943;SDS011;11136;48.778;9.126;2023-02-28T01:56:48;4.00;;;2.22;;
21943;SDS011;11136;48.778;9.126;2023-02-28T01:59:27;2.65;;;2.40;;
21943;SDS011;11136;48.778;9.126;2023-02-28T02:01:57;6.18;;;2.58;;
21943;SDS011;11136;48.778;9.126;2023-02-28T02:04:23;3.15;;;2.30;;
21943;SDS011;11136;48.778;9.126;2023-02-28T02:06:57;3.35;;;2.58;;
21943;SDS011;11136;48.778;9.126;2023-02-28T02:09:24;3.97;;;2.50;;
21943;SDS011;11136;48.778;9.126;2023-02-28T02:11:49;4.28;;;2.85;;
21943;SDS011;11136;48.778;9.126;2023-02-28T02:14:48;4.05;;;2.75;;
21943;SDS011;11136;48.778;9.126;2023-02-28T02:36:35;6.90;;;3.10;;
21943;SDS011;11136;48.778;9.126;2023-02-28T02:39:17;3.35;;;2.70;;
21943;SDS011;11136;48.778;9.126;2023-02-28T02:41:53;3.35;;;2.97;;
21943;SDS011;11136;48.778;9.126;2023-02-28T02:44:22;4.03;;;3.17;;
21943;SDS011;11136;48.778;9.126;2023-02-28T02:46:55;5.07;;;3.13;;
21943;SDS011;11136;48.778;9.126;2023-02-28T02:49:34;3.50;;;2.65;;
21943;SDS011;11136;48.778;9.126;2023-02-28T02:52:03;4.22;;;2.92;;
21943;SDS011;11136;48.778;9.126;2023-02-28T02:54:33;4.45;;;2.97;;
21943;SDS011;11136;48.778;9.126;2023-02-28T02:57:03;5.97;;;3.00;;
21943;SDS011;11136;48.778;9.126;2023-02-28T02:59:33;4.68;;;2.60;;
21943;SDS011;11136;48.778;9.126;2023-02-28T03:02:03;5.05;;;3.25;;
21943;SDS011;11136;48.778;9.126;2023-02-28T03:04:32;4.57;;;2.65;;
21943;SDS011;11136;48.778;9.126;2023-02-28T03:07:03;3.53;;;2.63;;
21943;SDS011;11136;48.778;9.126;2023-02-28T03:09:28;4.95;;;3.05;;
21943;SDS011;11136;48.778;9.126;2023-02-28T03:11:58;4.32;;;3.10;;
21943;SDS011;11136;48.778;9.126;2023-02-28T03:14:25;6.38;;;2.90;;
21943;SDS011;11136;48.778;9.126;2023-02-28T03:17:21;6.65;;;3.10;;
21943;SDS011;11136;48.778;9.126;2023-02-28T03:33:21;5.75;;;3.20;;
21943;SDS011;11136;48.778;9.126;2023-02-28T03:38:52;4.03;;;3.22;;
21943;SDS011;11136;48.778;9.126;2023-02-28T03:41:50;3.58;;;3.00;;
21943;SDS011;11136;48.778;9.126;2023-02-28T03:44:21;4.47;;;2.88;;
21943;SDS011;11136;48.778;9.126;2023-02-28T03:47:07;4.72;;;3.42;;
21943;SDS011;11136;48.778;9.126;2023-02-28T03:50:10;5.18;;;3.30;;
21943;SDS011;11136;48.778;9.126;2023-02-28T03:53:01;5.07;;;3.13;;
21943;SDS011;11136;48.778;9.126;2023-02-28T03:55:44;5.53;;;3.17;;
21943;SDS011;11136;48.778;9.126;2023-02-28T04:01:08;3.73;;;2.83;;
21943;SDS011;11136;48.778;9.126;2023-02-28T04:03:37;5.97;;;2.88;;
21943;SDS011;11136;48.778;9.126;2023-02-28T04:06:04;3.20;;;2.90;;
21943;SDS011;11136;48.778;9.126;2023-02-28T04:08:32;5.68;;;3.08;;
21943;SDS011;11136;48.778;9.126;2023-02-28T04:14:10;3.60;;;3.27;;
21943;SDS011;11136;48.778;9.126;2023-02-28T04:16:37;5.30;;;3.53;;
21943;SDS011;11136;48.778;9.126;2023-02-28T04:19:05;3.75;;;3.05;;
21943;SDS011;11136;48.778;9.126;2023-02-28T04:21:39;4.43;;;3.10;;
21943;SDS011;11136;48.778;9.126;2023-02-28T04:24:22;4.65;;;3.00;;
21943;SDS011;11136;48.778;9.126;2023-02-28T04:26:50;5.38;;;3.25;;
21943;SDS011;11136;48.778;9.126;2023-02-28T04:29:18;5.65;;;3.25;;
21943;SDS011;11136;48.778;9.126;2023-02-28T04:31:46;7.22;;;3.22;;
21943;SDS011;11136;48.778;9.126;2023-02-28T04:34:11;5.65;;;3.58;;
21943;SDS011;11136;48.778;9.126;2023-02-28T04:36:37;5.97;;;4.18;;
21943;SDS011;11136;48.778;9.126;2023-02-28T04:39:03;4.53;;;3.20;;
21943;SDS011;11136;48.778;9.126;2023-02-28T04:41:29;5.40;;;3.28;;
21943;SDS011;11136;48.778;9.126;2023-02-28T04:43:55;4.95;;;3.55;;
21943;SDS011;11136;48.778;9.126;2023-02-28T04:46:21;6.30;;;3.47;;
21943;SDS011;11136;48.778;9.126;2023-02-28T04:48:47;5.10;;;3.47;;
21943;SDS011;11136;48.778;9.126;2023-02-28T04:51:14;6.72;;;3.55;;
21943;SDS011;11136;48.778;9.126;2023-02-28T04:53:41;5.65;;;3.70;;
21943;SDS011;11136;48.778;9.126;2023-02-28T04:56:08;5.28;;;3.40;;
21943;SDS011;11136;48.778;9.126;2023-02-28T04:58:36;7.53;;;4.00;;
21943;SDS011;11136;48.778;9.126;2023-02-28T05:01:06;6.00;;;3.58;;
21943;SDS011;11136;48.778;9.126;2023-02-28T05:03:41;6.40;;;3.78;;
21943;SDS011;11136;48.778;9.126;2023-02-28T05:06:07;4.95;;;3.28;;
21943;SDS011;11136;48.778;9.126;2023-02-28T05:08:33;6.40;;;3.78;;
21943;SDS011;11136;48.778;9.126;2023-02-28T05:10:59;5.82;;;3.65;;
21943;SDS011;11136;48.778;9.126;2023-02-28T05:13:26;7.55;;;3.83;;
21943;SDS011;11136;48.778;9.126;2023-02-28T05:15:52;5.85;;;3.35;;
21943;SDS011;11136;48.778;9.126;2023-02-28T05:18:18;3.97;;;3.50;;
21943;SDS011;11136;48.778;9.126;2023-02-28T05:20:43;6.85;;;4.03;;
21943;SDS011;11136;48.778;9.126;2023-02-28T05:23:12;7.57;;;4.28;;
21943;SDS011;11136;48.778;9.126;2023-02-28T05:25:38;5.18;;;3.67;;
21943;SDS011;11136;48.778;9.126;2023-02-28T05:28:05;5.22;;;3.80;;
21943;SDS011;11136;48.778;9.126;2023-02-28T05:30:31;5.05;;;3.70;;
21943;SDS011;11136;48.778;9.126;2023-02-28T05:32:57;9.40;;;4.57;;
21943;SDS011;11136;48.778;9.126;2023-02-28T05:35:24;4.65;;;2.95;;
21943;SDS011;11136;48.778;9.126;2023-02-28T05:37:50;5.68;;;3.85;;
21943;SDS011;11136;48.778;9.126;2023-02-28T05:40:16;9.10;;;4.00;;
21943;SDS011;11136;48.778;9.126;2023-02-28T05:42:42;7.38;;;4.53;;
21943;SDS011;11136;48.778;9.126;2023-02-28T05:45:08;6.57;;;4.10;;
21943;SDS011;11136;48.778;9.126;2023-02-28T05:47:34;4.85;;;3.88;;
21943;SDS011;11136;48.778;9.126;2023-02-28T05:50:00;9.20;;;4.35;;
21943;SDS011;11136;48.778;9.126;2023-02-28T05:52:27;5.55;;;3.92;;
21943;SDS011;11136;48.778;9.126;2023-02-28T05:54:55;6.35;;;4.22;;
21943;SDS011;11136;48.778;9.126;2023-02-28T05:57:21;5.78;;;4.20;;
21943;SDS011;11136;48.778;9.126;2023-02-28T05:59:46;6.00;;;4.45;;
21943;SDS011;11136;48.778;9.126;2023-02-28T06:02:13;7.95;;;4.82;;
21943;SDS011;11136;48.778;9.126;2023-02-28T06:04:40;6.30;;;4.22;;
21943;SDS011;11136;48.778;9.126;2023-02-28T06:07:06;8.60;;;3.72;;
21943;SDS011;11136;48.778;9.126;2023-02-28T06:09:32;8.43;;;4.20;;
21943;SDS011;11136;48.778;9.126;2023-02-28T06:11:59;8.25;;;4.18;;
21943;SDS011;11136;48.778;9.126;2023-02-28T06:14:27;5.88;;;4.47;;
21943;SDS011;11136;48.778;9.126;2023-02-28T06:16:53;10.02;;;5.00;;
21943;SDS011;11136;48.778;9.126;2023-02-28T06:19:19;5.88;;;4.07;;
21943;SDS011;11136;48.778;9.126;2023-02-28T06:21:44;6.50;;;4.53;;
21943;SDS011;11136;48.778;9.126;2023-02-28T06:24:10;6.78;;;4.45;;
21943;SDS011;11136;48.778;9.126;2023-02-28T06:26:36;5.45;;;4.30;;
21943;SDS011;11136;48.778;9.126;2023-02-28T06:29:02;8.60;;;4.60;;
21943;SDS011;11136;48.778;9.126;2023-02-28T06:31:28;7.75;;;4.93;;
21943;SDS011;11136;48.778;9.126;2023-02-28T06:33:54;9.15;;;4.45;;
21943;SDS011;11136;48.778;9.126;2023-02-28T06:36:20;7.15;;;5.03;;
21943;SDS011;11136;48.778;9.126;2023-02-28T06:38:46;6.40;;;4.22;;
21943;SDS011;11136;48.778;9.126;2023-02-28T06:41:16;8.88;;;4.82;;
21943;SDS011;11136;48.778;9.126;2023-02-28T06:43:42;7.75;;;4.78;;
21943;SDS011;11136;48.778;9.126;2023-02-28T06:46:09;7.32;;;4.72;;
21943;SDS011;11136;48.778;9.126;2023-02-28T06:48:37;11.38;;;4.70;;
21943;SDS011;11136;48.778;9.126;2023-02-28T06:51:03;8.68;;;5.25;;
21943;SDS011;11136;48.778;9.126;2023-02-28T06:53:30;7.10;;;4.43;;
21943;SDS011;11136;48.778;9.126;2023-02-28T06:55:56;10.07;;;4.65;;
21943;SDS011;11136;48.778;9.126;2023-02-28T06:58:22;9.50;;;5.03;;
21943;SDS011;11136;48.778;9.126;2023-02-28T07:00:50;7.72;;;4.95;;
21943;SDS011;11136;48.778;9.126;2023-02-28T07:03:17;8.18;;;5.32;;
21943;SDS011;11136;48.778;9.126;2023-02-28T07:05:43;6.97;;;4.30;;
21943;SDS011;11136;48.778;9.126;2023-02-28T07:08:09;7.97;;;4.97;;
21943;SDS011;11136;48.778;9.126;2023-02-28T07:10:38;8.25;;;5.00;;
21943;SDS011;11136;48.778;9.126;2023-02-28T07:13:04;6.85;;;4.88;;
21943;SDS011;11136;48.778;9.126;2023-02-28T07:15:30;9.07;;;4.97;;
21943;SDS011;11136;48.778;9.126;2023-02-28T07:17:56;8.25;;;4.70;;
21943;SDS011;11136;48.778;9.126;2023-02-28T07:20:21;8.73;;;5.10;;
21943;SDS011;11136;48.778;9.126;2023-02-28T07:22:48;8.77;;;5.75;;
21943;SDS011;11136;48.778;9.126;2023-02-28T07:25:20;7.65;;;4.93;;
21943;SDS011;11136;48.778;9.126;2023-02-28T07:27:47;8.32;;;5.20;;
21943;SDS011;11136;48.778;9.126;2023-02-28T07:30:13;7.00;;;4.93;;
21943;SDS011;11136;48.778;9.126;2023-02-28T07:32:38;7.32;;;5.05;;
21943;SDS011;11136;48.778;9.126;2023-02-28T07:35:04;8.82;;;4.88;;
21943;SDS011;11136;48.778;9.126;2023-02-28T07:37:30;9.40;;;5.05;;
21943;SDS011;11136;48.778;9.126;2023-02-28T07:40:03;8.68;;;5.53;;
21943;SDS011;11136;48.778;9.126;2023-02-28T07:42:33;11.20;;;5.50;;
21943;SDS011;11136;48.778;9.126;2023-02-28T07:45:00;8.32;;;5.28;;
21943;SDS011;11136;48.778;9.126;2023-02-28T07:47:26;9.07;;;5.57;;
21943;SDS011;11136;48.778;9.126;2023-02-28T07:49:51;7.25;;;4.80;;
21943;SDS011;11136;48.778;9.126;2023-02-28T07:52:17;7.75;;;4.75;;
21943;SDS011;11136;48.778;9.126;2023-02-28T07:54:43;7.32;;;4.95;;
21943;SDS011;11136;48.778;9.126;2023-02-28T07:57:08;8.95;;;5.13;;
21943;SDS011;11136;48.778;9.126;2023-02-28T07:59:34;10.70;;;5.85;;
21943;SDS011;11136;48.778;9.126;2023-02-28T08:01:59;11.52;;;7.00;;
21943;SDS011;11136;48.778;9.126;2023-02-28T08:04:25;8.55;;;5.57;;
21943;SDS011;11136;48.778;9.126;2023-02-28T08:06:51;10.23;;;5.95;;
21943;SDS011;11136;48.778;9.126;2023-02-28T08:09:18;8.63;;;5.25;;
21943;SDS011;11136;48.778;9.126;2023-02-28T08:11:44;10.20;;;5.03;;
21943;SDS011;11136;48.778;9.126;2023-02-28T08:14:09;7.93;;;5.22;;
21943;SDS011;11136;48.778;9.126;2023-02-28T08:16:35;9.85;;;5.85;;
21943;SDS011;11136;48.778;9.126;2023-02-28T08:19:01;6.45;;;4.75;;
21943;SDS011;11136;48.778;9.126;2023-02-28T08:21:26;9.43;;;6.05;;
21943;SDS011;11136;48.778;9.126;2023-02-28T08:23:52;7.55;;;5.53;;
21943;SDS011;11136;48.778;9.126;2023-02-28T08:26:18;8.75;;;5.90;;
21943;SDS011;11136;48.778;9.126;2023-02-28T08:28:44;9.70;;;5.65;;
21943;SDS011;11136;48.778;9.126;2023-02-28T08:31:10;10.70;;;5.43;;
21943;SDS011;11136;48.778;9.126;2023-02-28T08:33:38;13.52;;;5.53;;
21943;SDS011;11136;48.778;9.126;2023-02-28T08:36:05;9.52;;;5.60;;
21943;SDS011;11136;48.778;9.126;2023-02-28T08:38:31;8.80;;;5.40;;
21943;SDS011;11136;48.778;9.126;2023-02-28T08:40:58;9.52;;;5.72;;
21943;SDS011;11136;48.778;9.126;2023-02-28T08:43:28;12.57;;;5.30;;
21943;SDS011;11136;48.778;9.126;2023-02-28T08:45:54;10.25;;;6.22;;
21943;SDS011;11136;48.778;9.126;2023-02-28T08:48:22;11.30;;;5.43;;
21943;SDS011;11136;48.778;9.126;2023-02-28T08:50:58;10.70;;;5.80;;
21943;SDS011;11136;48.778;9.126;2023-02-28T08:53:25;10.55;;;5.70;;
21943;SDS011;11136;48.778;9.126;2023-02-28T08:56:01;9.02;;;6.28;;
21943;SDS011;11136;48.778;9.126;2023-02-28T08:58:29;12.88;;;6.15;;
21943;SDS011;11136;48.778;9.126;2023-02-28T09:00:55;7.95;;;5.80;;
21943;SDS011;11136;48.778;9.126;2023-02-28T09:03:21;9.85;;;6.28;;
21943;SDS011;11136;48.778;9.126;2023-02-28T09:05:59;14.80;;;6.00;;
21943;SDS011;11136;48.778;9.126;2023-02-28T09:08:26;9.82;;;6.15;;
21943;SDS011;11136;48.778;9.126;2023-02-28T09:10:53;11.95;;;6.75;;
21943;SDS011;11136;48.778;9.126;2023-02-28T09:13:20;11.30;;;6.30;;
21943;SDS011;11136;48.778;9.126;2023-02-28T09:15:46;9.57;;;6.30;;
21943;SDS011;11136;48.778;9.126;2023-02-28T09:18:12;10.13;;;5.78;;
21943;SDS011;11136;48.778;9.126;2023-02-28T09:20:38;12.82;;;6.45;;
21943;SDS011;11136;48.778;9.126;2023-02-28T09:23:05;9.98;;;5.82;;
21943;SDS011;11136;48.778;9.126;2023-02-28T09:25:31;10.77;;;5.90;;
21943;SDS011;11136;48.778;9.126;2023-02-28T09:27:59;9.57;;;5.85;;
21943;SDS011;11136;48.778;9.126;2023-02-28T09:30:24;8.35;;;5.65;;
21943;SDS011;11136;48.778;9.126;2023-02-28T09:32:51;11.00;;;6.22;;
21943;SDS011;11136;48.778;9.126;2023-02-28T09:35:20;11.63;;;6.53;;
21943;SDS011;11136;48.778;9.126;2023-02-28T09:37:47;10.70;;;6.60;;
21943;SDS011;11136;48.778;9.126;2023-02-28T09:40:16;10.07;;;6.38;;
21943;SDS011;11136;48.778;9.126;2023-02-28T09:42:45;11.30;;;6.00;;
21943;SDS011;11136;48.778;9.126;2023-02-28T09:50:23;11.65;;;6.60;;
21943;SDS011;11136;48.778;9.126;2023-02-28T09:52:58;11.35;;;6.13;;
21943;SDS011;11136;48.778;9.126;2023-02-28T09:57:58;12.20;;;6.78;;
21943;SDS011;11136;48.778;9.126;2023-02-28T10:08:41;9.63;;;6.57;;
21943;SDS011;11136;48.778;9.126;2023-02-28T10:11:21;9.98;;;6.38;;
21943;SDS011;11136;48.778;9.126;2023-02-28T10:13:50;12.05;;;6.70;;
21943;SDS011;11136;48.778;9.126;2023-02-28T10:21:43;8.57;;;6.47;;
21943;SDS011;11136;48.778;9.126;2023-02-28T10:24:20;11.05;;;7.20;;
21943;SDS011;11136;48.778;9.126;2023-02-28T10:26:56;10.32;;;6.80;;
21943;SDS011;11136;48.778;9.126;2023-02-28T10:29:26;13.88;;;7.43;;
21943;SDS011;11136;48.778;9.126;2023-02-28T10:31:56;10.40;;;6.90;;
21943;SDS011;11136;48.778;9.126;2023-02-28T10:34:22;11.45;;;7.03;;
21943;SDS011;11136;48.778;9.126;2023-02-28T10:36:49;11.32;;;6.93;;
21943;SDS011;11136;48.778;9.126;2023-02-28T10:39:35;10.02;;;6.53;;
21943;SDS011;11136;48.778;9.126;2023-02-28T10:42:19;11.77;;;7.30;;
21943;SDS011;11136;48.778;9.126;2023-02-28T10:45:10;15.85;;;7.32;;
21943;SDS011;11136;48.778;9.126;2023-02-28T11:03:57;10.02;;;6.45;;
21943;SDS011;11136;48.778;9.126;2023-02-28T11:06:28;11.48;;;6.97;;
21943;SDS011;11136;48.778;9.126;2023-02-28T11:09:00;10.15;;;6.90;;
21943;SDS011;11136;48.778;9.126;2023-02-28T11:11:29;10.45;;;6.97;;
21943;SDS011;11136;48.778;9.126;2023-02-28T11:14:05;10.07;;;6.50;;
21943;SDS011;11136;48.778;9.126;2023-02-28T11:16:42;10.30;;;6.88;;
21943;SDS011;11136;48.778;9.126;2023-02-28T11:19:15;11.80;;;7.50;;
21943;SDS011;11136;48.778;9.126;2023-02-28T11:21:57;11.48;;;6.80;;
21943;SDS011;11136;48.778;9.126;2023-02-28T11:24:37;12.25;;;6.75;;
21943;SDS011;11136;48.778;9.126;2023-02-28T11:29:59;10.40;;;6.75;;
21943;SDS011;11136;48.778;9.126;2023-02-28T11:32:26;11.00;;;7.13;;
21943;SDS011;11136;48.778;9.126;2023-02-28T11:37:39;11.60;;;7.20;;
21943;SDS011;11136;48.778;9.126;2023-02-28T11:40:15;8.88;;;6.35;;
21943;SDS011;11136;48.778;9.126;2023-02-28T11:43:01;9.77;;;6.18;;
21943;SDS011;11136;48.778;9.126;2023-02-28T11:45:49;12.20;;;6.65;;
21943;SDS011;11136;48.778;9.126;2023-02-28T11:48:49;10.50;;;6.60;;
21943;SDS011;11136;48.778;9.126;2023-02-28T11:54:23;14.25;;;6.68;;
21943;SDS011;11136;48.778;9.126;2023-02-28T11:57:34;10.13;;;6.93;;
21943;SDS011;11136;48.778;9.126;2023-02-28T12:02:35;8.98;;;6.40;;
21943;SDS011;11136;48.778;9.126;2023-02-28T12:06:00;10.32;;;7.13;;
21943;SDS011;11136;48.778;9.126;2023-02-28T12:11:06;12.68;;;7.07;;
21943;SDS011;11136;48.778;9.126;2023-02-28T12:14:22;8.82;;;6.57;;
21943;SDS011;11136;48.778;9.126;2023-02-28T12:28:43;11.57;;;6.88;;
21943;SDS011;11136;48.778;9.126;2023-02-28T12:31:15;9.27;;;6.90;;
21943;SDS011;11136;48.778;9.126;2023-02-28T12:33:48;14.40;;;7.55;;
21943;SDS011;11136;48.778;9.126;2023-02-28T12:36:18;10.07;;;6.70;;
21943;SDS011;11136;48.778;9.126;2023-02-28T12:41:42;9.40;;;6.75;;
21943;SDS011;11136;48.778;9.126;2023-02-28T12:44:17;9.70;;;6.30;;
21943;SDS011;11136;48.778;9.126;2023-02-28T12:46:52;8.25;;;6.82;;
21943;SDS011;11136;48.778;9.126;2023-02-28T12:49:28;11.30;;;6.85;;
21943;SDS011;11136;48.778;9.126;2023-02-28T12:52:02;8.93;;;6.70;;
21943;SDS011;11136;48.778;9.126;2023-02-28T12:54:39;9.80;;;6.82;;
21943;SDS011;11136;48.778;9.126;2023-02-28T12:57:30;9.00;;;6.97;;
21943;SDS011;11136;48.778;9.126;2023-02-28T13:00:16;9.27;;;6.55;;
21943;SDS011;11136;48.778;9.126;2023-02-28T13:02:50;10.18;;;6.95;;
21943;SDS011;11136;48.778;9.126;2023-02-28T13:11:25;12.30;;;6.72;;
21943;SDS011;11136;48.778;9.126;2023-02-28T13:13:58;10.68;;;7.25;;
21943;SDS011;11136;48.778;9.126;2023-02-28T13:16:26;11.02;;;7.35;;
21943;SDS011;11136;48.778;9.126;2023-02-28T13:18:52;9.32;;;6.35;;
21943;SDS011;11136;48.778;9.126;2023-02-28T13:21:41;8.55;;;6.45;;
21943;SDS011;11136;48.778;9.126;2023-02-28T13:24:09;11.65;;;6.72;;
21943;SDS011;11136;48.778;9.126;2023-02-28T13:34:31;9.75;;;6.22;;
21943;SDS011;11136;48.778;9.126;2023-02-28T13:47:51;10.77;;;6.50;;
21943;SDS011;11136;48.778;9.126;2023-02-28T13:55:42;8.23;;;6.53;;
21943;SDS011;11136;48.778;9.126;2023-02-28T14:08:47;9.63;;;6.30;;
21943;SDS011;11136;48.778;9.126;2023-02-28T14:11:40;8.35;;;6.72;;
21943;SDS011;11136;48.778;9.126;2023-02-28T14:14:09;9.43;;;6.65;;
21943;SDS011;11136;48.778;9.126;2023-02-28T14:16:55;7.63;;;6.07;;
21943;SDS011;11136;48.778;9.126;2023-02-28T14:19:24;8.68;;;6.38;;
21943;SDS011;11136;48.778;9.126;2023-02-28T14:41:33;11.13;;;6.22;;
21943;SDS011;11136;48.778;9.126;2023-02-28T14:44:02;9.10;;;5.88;;
21943;SDS011;11136;48.778;9.126;2023-02-28T14:46:39;9.43;;;6.47;;
21943;SDS011;11136;48.778;9.126;2023-02-28T14:49:07;10.25;;;6.13;;
21943;SDS011;11136;48.778;9.126;2023-02-28T14:51:41;8.43;;;6.70;;
21943;SDS011;11136;48.778;9.126;2023-02-28T14:54:12;8.05;;;6.50;;
21943;SDS011;11136;48.778;9.126;2023-02-28T14:56:48;10.07;;;6.15;;
21943;SDS011;11136;48.778;9.126;2023-02-28T14:59:33;9.07;;;6.00;;
21943;SDS011;11136;48.778;9.126;2023-02-28T15:02:20;9.35;;;6.05;;
21943;SDS011;11136;48.778;9.126;2023-02-28T15:04:58;12.88;;;7.13;;
21943;SDS011;11136;48.778;9.126;2023-02-28T15:07:25;12.15;;;6.53;;
21943;SDS011;11136;48.778;9.126;2023-02-28T15:12:36;8.60;;;6.00;;
21943;SDS011;11136;48.778;9.126;2023-02-28T15:15:02;7.53;;;6.10;;
21943;SDS011;11136;48.778;9.126;2023-02-28T15:17:28;9.77;;;6.55;;
21943;SDS011;11136;48.778;9.126;2023-02-28T15:19:55;8.40;;;5.80;;
21943;SDS011;11136;48.778;9.126;2023-02-28T15:22:26;11.07;;;6.82;;
21943;SDS011;11136;48.778;9.126;2023-02-28T15:25:01;9.38;;;6.03;;
21943;SDS011;11136;48.778;9.126;2023-02-28T15:27:31;9.13;;;6.45;;
21943;SDS011;11136;48.778;9.126;2023-02-28T15:29:59;8.40;;;6.38;;
21943;SDS011;11136;48.778;9.126;2023-02-28T15:32:31;8.13;;;5.70;;
21943;SDS011;11136;48.778;9.126;2023-02-28T15:34:58;8.55;;;6.30;;
21943;SDS011;11136;48.778;9.126;2023-02-28T15:37:46;8.48;;;6.25;;
21943;SDS011;11136;48.778;9.126;2023-02-28T15:40:23;8.18;;;6.25;;
21943;SDS011;11136;48.778;9.126;2023-02-28T15:45:41;12.55;;;7.05;;
21943;SDS011;11136;48.778;9.126;2023-02-28T15:48:15;10.85;;;7.32;;
21943;SDS011;11136;48.778;9.126;2023-02-28T15:50:51;10.90;;;7.18;;
21943;SDS011;11136;48.778;9.126;2023-02-28T15:53:21;11.40;;;6.75;;
21943;SDS011;11136;48.778;9.126;2023-02-28T15:55:53;13.00;;;6.68;;
21943;SDS011;11136;48.778;9.126;2023-02-28T15:58:23;9.40;;;6.80;;
21943;SDS011;11136;48.778;9.126;2023-02-28T16:01:00;13.75;;;6.38;;
21943;SDS011;11136;48.778;9.126;2023-02-28T16:03:35;9.75;;;7.10;;
21943;SDS011;11136;48.778;9.126;2023-02-28T16:06:09;9.52;;;6.40;;
21943;SDS011;11136;48.778;9.126;2023-02-28T16:08:41;8.40;;;6.45;;
21943;SDS011;11136;48.778;9.126;2023-02-28T16:11:08;9.48;;;7.03;;
21943;SDS011;11136;48.778;9.126;2023-02-28T16:13:35;9.55;;;6.47;;
21943;SDS011;11136;48.778;9.126;2023-02-28T16:16:01;10.38;;;7.15;;
21943;SDS011;11136;48.778;9.126;2023-02-28T16:18:26;9.38;;;6.90;;
21943;SDS011;11136;48.778;9.126;2023-02-28T16:20:52;10.15;;;7.05;;
21943;SDS011;11136;48.778;9.126;2023-02-28T16:23:19;9.15;;;6.38;;
21943;SDS011;11136;48.778;9.126;2023-02-28T16:25:44;11.07;;;7.35;;
21943;SDS011;11136;48.778;9.126;2023-02-28T16:28:21;9.82;;;6.97;;
21943;SDS011;11136;48.778;9.126;2023-02-28T16:30:51;17.10;;;11.02;;
21943;SDS011;11136;48.778;9.126;2023-02-28T16:33:17;13.88;;;8.32;;
21943;SDS011;11136;48.778;9.126;2023-02-28T16:35:43;9.77;;;6.93;;
21943;SDS011;11136;48.778;9.126;2023-02-28T16:38:08;10.82;;;7.65;;
21943;SDS011;11136;48.778;9.126;2023-02-28T16:40:35;12.80;;;7.45;;
21943;SDS011;11136;48.778;9.126;2023-02-28T16:43:03;11.35;;;8.05;;
21943;SDS011;11136;48.778;9.126;2023-02-28T16:45:32;10.43;;;7.28;;
21943;SDS011;11136;48.778;9.126;2023-02-28T16:47:58;14.27;;;7.40;;
21943;SDS011;11136;48.778;9.126;2023-02-28T16:50:25;10.38;;;7.28;;
21943;SDS011;11136;48.778;9.126;2023-02-28T16:52:55;12.10;;;7.47;;
21943;SDS011;11136;48.778;9.126;2023-02-28T16:55:24;13.00;;;7.78;;
21943;SDS011;11136;48.778;9.126;2023-02-28T16:57:52;11.32;;;7.45;;
21943;SDS011;11136;48.778;9.126;2023-02-28T17:00:19;13.80;;;8.27;;
21943;SDS011;11136;48.778;9.126;2023-02-28T17:02:45;12.68;;;8.73;;
21943;SDS011;11136;48.778;9.126;2023-02-28T17:05:11;14.00;;;8.90;;
21943;SDS011;11136;48.778;9.126;2023-02-28T17:07:38;15.60;;;9.75;;
21943;SDS011;11136;48.778;9.126;2023-02-28T17:12:59;56.58;;;34.67;;
21943;SDS011;11136;48.778;9.126;2023-02-28T17:15:24;38.15;;;25.05;;
21943;SDS011;11136;48.778;9.126;2023-02-28T17:17:50;14.52;;;8.85;;
21943;SDS011;11136;48.778;9.126;2023-02-28T17:20:17;11.75;;;8.93;;
21943;SDS011;11136;48.778;9.126;2023-02-28T17:22:47;10.95;;;7.78;;
21943;SDS011;11136;48.778;9.126;2023-02-28T17:25:14;11.35;;;8.75;;
21943;SDS011;11136;48.778;9.126;2023-02-28T17:27:39;13.05;;;8.57;;
21943;SDS011;11136;48.778;9.126;2023-02-28T17:32:45;13.02;;;7.95;;
21943;SDS011;11136;48.778;9.126;2023-02-28T17:35:10;11.60;;;7.20;;
21943;SDS011;11136;48.778;9.126;2023-02-28T17:37:36;12.98;;;7.68;;
21943;SDS011;11136;48.778;9.126;2023-02-28T17:40:02;13.15;;;7.53;;
21943;SDS011;11136;48.778;9.126;2023-02-28T17:42:28;12.25;;;7.70;;
21943;SDS011;11136;48.778;9.126;2023-02-28T17:44:54;12.82;;;7.68;;
21943;SDS011;11136;48.778;9.126;2023-02-28T17:47:19;12.73;;;7.15;;
21943;SDS011;11136;48.778;9.126;2023-02-28T17:49:45;13.93;;;8.23;;
21943;SDS011;11136;48.778;9.126;2023-02-28T17:52:10;13.20;;;8.20;;
21943;SDS011;11136;48.778;9.126;2023-02-28T17:54:36;11.80;;;8.18;;
21943;SDS011;11136;48.778;9.126;2023-02-28T17:57:02;13.52;;;8.63;;
21943;SDS011;11136;48.778;9.126;2023-02-28T17:59:27;13.13;;;8.55;;
21943;SDS011;11136;48.778;9.126;2023-02-28T18:01:58;12.70;;;8.37;;